Time;durP1;ratioP1;P1;durP2;ratioP2;P2;SDS_P1;SDS_P2;PMS_P1;PMS_P2;Temp;Humidity;BMP_temperature;BMP_pressure;BME280_temperature;BME280_humidity;BME280_pressure;Samples;Min_cycle;Max_cycle;Signal;HPM_P1;HPM_P2
2021/10/12 00:02:03;;;;;;;4.43;1.17;;;;;;;18.52;65.19;102551.38;4942118;29;20393;-86
2021/10/12 00:04:28;;;;;;;2.13;1.00;;;;;;;18.52;65.20;102545.28;4921882;29;20059;-86
2021/10/12 00:06:54;;;;;;;1.92;0.90;;;;;;;18.51;65.21;102552.25;4918838;29;20040;-88
2021/10/12 00:09:20;;;;;;;2.42;1.10;;;;;;;18.52;65.09;102550.50;4919901;29;20020;-85
2021/10/12 00:18:30;;;;;;;2.85;0.85;;;;;;;18.52;65.08;102540.09;4942829;29;20047;-86
2021/10/12 00:21:05;;;;;;;2.30;0.90;;;;;;;18.51;65.17;102544.44;4910174;29;20100;-85
2021/10/12 00:23:31;;;;;;;3.00;1.00;;;;;;;18.49;64.93;102539.19;4921406;29;20040;-85
2021/10/12 00:25:57;;;;;;;3.10;1.10;;;;;;;18.50;65.21;102540.91;4921694;29;20028;-85
2021/10/12 00:32:28;;;;;;;2.60;1.10;;;;;;;18.52;65.04;102537.47;4941358;29;20082;-85
2021/10/12 00:51:47;;;;;;;1.90;0.80;;;;;;;18.49;64.95;102513.13;4878178;29;20173;-86
2021/10/12 01:29:20;;;;;;;3.22;0.98;;;;;;;18.48;64.85;102450.53;4979325;23;20155;-84
2021/10/12 01:31:46;;;;;;;3.75;1.10;;;;;;;18.49;64.96;102444.47;4921374;29;20048;-84
2021/10/12 01:34:21;;;;;;;2.65;0.98;;;;;;;18.49;64.97;102439.25;4931235;29;20118;-84
2021/10/12 01:39:55;;;;;;;2.08;1.00;;;;;;;18.48;64.56;102422.72;5232997;23;20099;-83
2021/10/12 02:14:48;;;;;;;0.85;0.60;;;;;;;18.46;64.89;102392.28;5033284;23;20055;-85
2021/10/12 02:17:14;;;;;;;1.80;0.83;;;;;;;18.47;64.67;102396.66;4932819;29;20074;-85
2021/10/12 02:19:39;;;;;;;3.42;0.80;;;;;;;18.47;64.84;102392.31;4918885;29;20024;-84
2021/10/12 02:22:05;;;;;;;1.88;0.70;;;;;;;18.47;64.63;102392.31;4919051;29;20031;-85
2021/10/12 02:40:30;;;;;;;;;;;;;;;18.48;64.70;102361.88;4982347;23;20060;-84
2021/10/12 02:42:58;;;;;;;2.70;0.90;;;;;;;18.45;64.81;102360.13;4911671;29;19943;-85
2021/10/12 02:45:24;;;;;;;2.38;0.90;;;;;;;18.47;64.86;102349.72;4917586;29;20028;-84
2021/10/12 02:50:58;;;;;;;1.63;0.60;;;;;;;18.45;64.57;102331.47;5101099;23;20079;-84
2021/10/12 02:53:24;;;;;;;2.25;0.82;;;;;;;18.46;64.50;102330.59;4937955;29;20036;-84
2021/10/12 03:15:34;;;;;;;2.33;0.80;;;;;;;18.45;64.73;102304.53;4962037;29;20035;-84
2021/10/12 03:27:28;;;;;;;1.50;0.70;;;;;;;18.44;64.61;102267.16;4962262;29;20070;-86
2021/10/12 03:33:16;;;;;;;1.92;0.80;;;;;;;18.44;64.67;102269.78;4962160;29;20094;-84
2021/10/12 03:38:31;;;;;;;1.52;0.80;;;;;;;18.44;64.67;102282.81;5187176;23;20052;-84
2021/10/12 05:36:22;;;;;;;10.18;3.53;;;;;;;18.43;64.52;102162.88;4938183;29;20296;-85
2021/10/12 05:48:06;;;;;;;9.15;2.97;;;;;;;18.43;64.67;102155.94;4936945;29;20068;-85
2021/10/12 05:53:58;;;;;;;6.78;2.63;;;;;;;18.40;64.56;102145.50;4937337;29;20047;-86
2021/10/12 05:59:08;;;;;;;;;;;;;;;18.44;64.62;102146.38;4936237;29;20412;-87
2021/10/12 06:01:52;;;;;;;6.65;2.30;;;;;;;18.43;64.55;102139.44;4916883;29;19911;-85
2021/10/12 06:28:23;;;;;;;7.85;2.35;;;;;;;18.63;64.18;102136.94;4932240;29;20060;-86
2021/10/12 06:34:12;;;;;;;7.13;2.10;;;;;;;18.64;64.25;102129.16;4927901;29;20087;-87
2021/10/12 06:36:41;;;;;;;5.75;2.17;;;;;;;18.63;64.19;102127.38;4908367;29;20036;-84
2021/10/12 06:39:08;;;;;;;7.20;2.60;;;;;;;18.66;64.11;102126.53;4926422;29;20036;-84
2021/10/12 06:41:33;;;;;;;5.93;2.53;;;;;;;18.69;64.08;102126.56;4927316;29;20034;-85
2021/10/12 06:43:59;;;;;;;7.97;2.30;;;;;;;18.74;63.76;102129.22;4876151;29;20118;-84
2021/10/12 06:46:27;;;;;;;4.75;2.22;;;;;;;18.75;63.91;102129.22;4892306;29;20084;-86
2021/10/12 06:48:52;;;;;;;4.70;2.05;;;;;;;18.76;63.82;102124.88;4890818;29;20396;-86
2021/10/12 06:51:18;;;;;;;8.00;2.70;;;;;;;18.79;63.61;102117.97;4892287;29;20028;-84
2021/10/12 06:53:46;;;;;;;5.85;2.20;;;;;;;18.81;63.43;102116.22;4906559;29;20032;-84
2021/10/12 06:56:12;;;;;;;6.57;2.40;;;;;;;18.82;63.69;102119.72;4905036;29;20548;-85
2021/10/12 06:58:37;;;;;;;5.32;2.15;;;;;;;18.83;63.76;102122.31;4904866;29;20032;-85
2021/10/12 07:01:02;;;;;;;7.65;2.30;;;;;;;18.86;63.47;102121.50;4904442;29;20533;-85
2021/10/12 07:03:28;;;;;;;6.15;2.63;;;;;;;18.85;63.66;102111.91;4904240;29;20043;-85
2021/10/12 07:05:53;;;;;;;7.43;2.22;;;;;;;18.81;63.59;102118.84;4873032;29;20032;-85
2021/10/12 07:08:18;;;;;;;5.32;2.17;;;;;;;18.77;63.37;102110.97;4890990;29;20370;-86
2021/10/12 07:10:44;;;;;;;4.78;2.10;;;;;;;18.75;63.75;102107.47;4875539;29;20039;-85
2021/10/12 07:13:12;;;;;;;7.32;2.22;;;;;;;18.71;63.85;102112.69;4890521;29;20032;-86
2021/10/12 07:15:37;;;;;;;5.38;2.33;;;;;;;18.71;63.84;102112.69;4889604;29;20122;-85
2021/10/12 07:18:02;;;;;;;7.13;2.53;;;;;;;18.71;63.81;102107.47;4884850;29;20049;-86
2021/10/12 07:20:28;;;;;;;4.20;2.17;;;;;;;18.69;63.94;102117.00;4885828;29;20071;-83
2021/10/12 07:22:53;;;;;;;5.50;2.03;;;;;;;18.69;63.71;102105.72;4876322;29;20032;-83
2021/10/12 07:25:19;;;;;;;4.40;2.03;;;;;;;18.73;63.71;102101.38;4874337;29;20041;-85
2021/10/12 07:27:45;;;;;;;6.60;2.10;;;;;;;18.75;63.79;102108.38;4888740;29;20035;-83
2021/10/12 07:30:11;;;;;;;5.60;2.28;;;;;;;18.77;63.49;102098.81;4887145;29;20033;-83
2021/10/12 07:32:37;;;;;;;5.15;2.13;;;;;;;18.80;63.69;102095.38;4855080;29;20029;-83
2021/10/12 07:35:04;;;;;;;4.93;1.90;;;;;;;18.84;63.25;102100.63;4869021;29;20029;-82
2021/10/12 07:37:30;;;;;;;6.85;2.20;;;;;;;18.87;63.14;102095.41;4884705;29;20394;-83
2021/10/12 07:39:55;;;;;;;6.03;2.03;;;;;;;18.93;63.07;102086.75;4884651;29;20036;-82
2021/10/12 07:42:21;;;;;;;5.32;1.90;;;;;;;18.93;63.15;102088.50;4868824;29;20033;-83
2021/10/12 07:44:46;;;;;;;7.53;1.92;;;;;;;18.85;63.22;102084.09;4884556;29;20051;-83
2021/10/12 07:47:11;;;;;;;3.85;1.85;;;;;;;18.83;63.43;102088.41;4884359;29;20047;-82
2021/10/12 07:49:37;;;;;;;8.10;2.28;;;;;;;18.81;63.53;102090.16;4869255;29;20020;-82
2021/10/12 07:52:07;;;;;;;4.50;1.88;;;;;;;18.81;63.45;102089.28;4870061;29;20456;-82
2021/10/12 07:55:27;;;;;;;6.57;1.92;;;;;;;18.81;63.35;102086.66;4902073;29;20041;-83
2021/10/12 07:57:24;;;;;;;4.40;1.73;;;;;;;18.92;62.85;102082.38;4891269;29;20032;-83
2021/10/12 07:59:49;;;;;;;4.30;1.58;;;;;;;19.26;61.69;102079.91;4853690;29;20072;-84
2021/10/12 08:02:16;;;;;;;5.15;2.00;;;;;;;19.14;62.13;102085.97;4884598;29;20038;-84
2021/10/12 08:04:42;;;;;;;3.78;1.80;;;;;;;19.06;62.55;102092.91;4884647;29;20085;-82
2021/10/12 08:07:08;;;;;;;4.88;1.73;;;;;;;19.12;62.46;102082.50;4884317;29;20410;-84
2021/10/12 08:09:34;;;;;;;4.15;2.00;;;;;;;19.04;62.71;102086.78;4901368;29;20028;-84
2021/10/12 08:12:03;;;;;;;4.05;1.90;;;;;;;18.93;63.00;102080.66;4869106;29;20482;-84
2021/10/12 08:14:29;;;;;;;3.25;1.45;;;;;;;18.85;63.13;102084.09;4869146;29;20039;-83
2021/10/12 08:16:55;;;;;;;4.22;1.70;;;;;;;18.81;63.19;102082.31;4883641;29;20025;-83
2021/10/12 08:19:20;;;;;;;4.07;1.73;;;;;;;18.79;63.38;102076.25;4869433;29;20538;-83
2021/10/12 08:21:46;;;;;;;5.63;2.00;;;;;;;18.83;63.13;102090.16;4854120;29;20036;-85
2021/10/12 08:24:12;;;;;;;4.57;1.80;;;;;;;18.93;62.91;102075.44;4868685;29;20036;-82
2021/10/12 08:26:39;;;;;;;5.15;1.90;;;;;;;19.04;62.62;102082.44;4883750;29;20033;-84
2021/10/12 08:29:05;;;;;;;3.90;1.67;;;;;;;18.95;62.91;102082.41;4868501;29;20420;-84
2021/10/12 08:31:30;;;;;;;4.47;1.65;;;;;;;18.88;62.85;102093.69;4883583;29;20028;-84
2021/10/12 08:33:56;;;;;;;4.82;1.63;;;;;;;18.83;63.23;102096.25;4883717;29;20032;-82
2021/10/12 08:36:22;;;;;;;4.07;1.58;;;;;;;18.79;63.09;102091.91;4883570;29;20033;-83
2021/10/12 08:38:52;;;;;;;3.53;1.63;;;;;;;18.78;63.06;102116.22;4867965;29;20410;-83
2021/10/12 08:41:24;;;;;;;4.00;1.48;;;;;;;18.76;63.43;102130.09;4883732;29;20033;-83
2021/10/12 08:43:49;;;;;;;4.55;1.90;;;;;;;18.76;63.23;102135.31;4883880;29;20084;-83
2021/10/12 08:46:16;;;;;;;4.30;1.55;;;;;;;18.77;63.30;102119.69;4883877;29;20062;-83
2021/10/12 08:48:41;;;;;;;4.72;1.40;;;;;;;18.79;63.03;102107.56;4868023;29;20124;-84
2021/10/12 08:51:06;;;;;;;3.42;1.77;;;;;;;18.80;63.13;102105.81;4883308;29;20032;-84
2021/10/12 08:53:33;;;;;;;2.78;1.38;;;;;;;18.81;63.27;102094.50;4883401;29;20024;-82
2021/10/12 08:56:00;;;;;;;3.53;1.20;;;;;;;18.81;63.09;102090.16;4900252;29;20466;-84
2021/10/12 08:58:25;;;;;;;3.22;1.50;;;;;;;18.82;63.03;102083.22;4883559;29;20040;-84
2021/10/12 09:01:14;;;;;;;3.92;1.48;;;;;;;18.83;63.09;102085.81;4883227;29;20418;-84
2021/10/12 09:03:58;;;;;;;3.45;1.45;;;;;;;18.80;63.02;102090.16;4883353;29;20032;-83
2021/10/12 09:06:45;;;;;;;5.80;1.40;;;;;;;18.80;62.96;102088.41;4883221;29;20453;-83
2021/10/12 09:09:16;;;;;;;5.35;1.60;;;;;;;18.82;62.93;102089.31;4883286;29;20111;-85
2021/10/12 09:11:43;;;;;;;3.90;1.50;;;;;;;18.84;63.07;102082.34;4868597;29;20025;-83
2021/10/12 09:14:08;;;;;;;3.40;1.42;;;;;;;18.82;62.77;102067.56;4883144;29;20043;-82
2021/10/12 09:16:37;;;;;;;5.97;1.52;;;;;;;18.82;62.90;102078.88;4871858;29;20029;-83
2021/10/12 09:19:23;;;;;;;4.80;1.40;;;;;;;18.82;63.00;102078.00;4887257;29;20053;-85
2021/10/12 09:21:50;;;;;;;3.25;1.20;;;;;;;18.80;62.97;102077.97;4890345;29;20033;-83
2021/10/12 09:24:22;;;;;;;4.43;1.50;;;;;;;18.78;63.15;102084.06;4885924;29;20028;-83
2021/10/12 09:26:50;;;;;;;3.60;1.35;;;;;;;18.77;63.22;102079.66;4868797;29;20044;-84
2021/10/12 09:29:24;;;;;;;2.97;1.40;;;;;;;18.74;63.33;102077.91;4883819;29;20032;-83
2021/10/12 09:31:50;;;;;;;3.95;1.42;;;;;;;18.73;63.25;102070.06;4900345;29;20021;-84
2021/10/12 09:34:18;;;;;;;5.30;1.67;;;;;;;18.74;63.52;102071.84;4882501;29;20039;-83
2021/10/12 09:36:48;;;;;;;3.80;1.33;;;;;;;18.74;63.32;102077.06;4882895;29;20426;-84
2021/10/12 09:39:35;;;;;;;3.70;1.52;;;;;;;18.73;63.14;102075.28;4882572;29;20076;-83
2021/10/12 09:42:12;;;;;;;3.13;1.23;;;;;;;18.73;63.49;102076.19;4883213;29;20028;-83
2021/10/12 09:44:50;;;;;;;3.38;1.33;;;;;;;18.71;63.28;102083.13;4883282;29;20028;-84
2021/10/12 09:47:15;;;;;;;2.58;1.17;;;;;;;18.71;63.22;102104.00;4883874;29;20080;-84
2021/10/12 09:49:43;;;;;;;1.92;1.02;;;;;;;18.72;63.46;102095.28;4884469;29;20033;-82
2021/10/12 09:52:14;;;;;;;3.60;1.20;;;;;;;18.71;63.51;102085.72;4883973;29;20029;-83
2021/10/12 09:54:52;;;;;;;2.92;1.20;;;;;;;18.70;63.38;102097.91;4884885;29;20033;-82
2021/10/12 09:57:20;;;;;;;3.22;1.17;;;;;;;18.70;63.38;102095.31;4901010;29;20029;-83
2021/10/12 09:59:47;;;;;;;4.07;1.52;;;;;;;18.71;63.30;102096.16;4883547;29;20111;-84
2021/10/12 10:02:18;;;;;;;2.60;1.20;;;;;;;18.73;63.40;102094.44;4883598;29;20036;-83
2021/10/12 10:04:44;;;;;;;2.58;0.98;;;;;;;18.77;63.10;102095.31;4882861;29;20358;-83
2021/10/12 10:07:15;;;;;;;3.08;1.40;;;;;;;18.79;62.98;102097.13;4882691;29;20029;-84
2021/10/12 10:09:44;;;;;;;2.92;1.05;;;;;;;18.81;62.85;102091.88;4882707;29;20036;-85
2021/10/12 10:12:09;;;;;;;3.15;1.30;;;;;;;18.82;62.80;102091.03;4883557;29;20035;-85
2021/10/12 10:14:36;;;;;;;2.33;1.15;;;;;;;18.80;62.99;102092.78;4868285;29;20028;-85
2021/10/12 10:17:03;;;;;;;2.75;1.10;;;;;;;18.79;63.06;102096.22;4853751;29;20068;-85
2021/10/12 10:19:43;;;;;;;3.80;1.13;;;;;;;18.81;63.01;102103.19;4884585;29;20045;-85
2021/10/12 10:22:08;;;;;;;2.08;0.95;;;;;;;18.83;62.72;102096.25;4883574;29;20374;-85
2021/10/12 10:24:33;;;;;;;3.20;1.02;;;;;;;18.89;62.51;102101.50;4883681;29;20084;-86
2021/10/12 10:27:00;;;;;;;1.73;0.95;;;;;;;18.95;62.50;102102.41;4882742;29;20032;-85
2021/10/12 10:29:27;;;;;;;2.15;1.10;;;;;;;19.01;62.45;102098.09;4882392;29;20047;-86
2021/10/12 10:31:59;;;;;;;3.22;1.10;;;;;;;19.04;62.52;102097.22;4882257;29;20037;-86
2021/10/12 10:34:37;;;;;;;3.05;1.20;;;;;;;19.05;62.36;102091.13;4883576;29;20021;-84
2021/10/12 10:37:15;;;;;;;1.65;1.05;;;;;;;19.06;62.31;102085.94;4891091;29;20032;-85
2021/10/12 10:39:42;;;;;;;3.20;1.20;;;;;;;19.01;62.01;102086.75;4890811;29;20071;-85
2021/10/12 10:42:07;;;;;;;2.65;1.33;;;;;;;18.96;62.64;102089.34;4890038;29;20545;-86
2021/10/12 10:44:53;;;;;;;2.78;1.10;;;;;;;19.02;62.42;102088.53;4887336;29;20041;-85
2021/10/12 10:47:41;;;;;;;2.28;1.10;;;;;;;19.10;62.23;102089.44;4884528;29;20028;-84
2021/10/12 10:50:25;;;;;;;2.60;1.00;;;;;;;19.10;62.23;102092.03;4884203;29;20037;-86
2021/10/12 10:52:55;;;;;;;2.72;1.20;;;;;;;19.06;62.43;102098.97;4883452;29;20088;-85
2021/10/12 10:55:25;;;;;;;2.65;1.00;;;;;;;19.09;62.27;102100.72;4899363;29;20121;-85
2021/10/12 10:58:12;;;;;;;2.15;0.93;;;;;;;19.09;62.31;102095.50;4882431;29;20033;-85
2021/10/12 11:00:57;;;;;;;2.78;0.98;;;;;;;19.09;62.11;102093.75;4882057;29;20482;-85
2021/10/12 11:03:32;;;;;;;1.70;0.80;;;;;;;19.09;62.16;102103.34;4882322;29;20025;-85
2021/10/12 11:05:59;;;;;;;2.33;1.02;;;;;;;19.08;62.09;102096.38;4900086;29;20075;-85
2021/10/12 11:08:27;;;;;;;2.15;0.93;;;;;;;19.09;62.04;102096.38;4882232;29;20091;-86
2021/10/12 11:11:09;;;;;;;2.20;0.77;;;;;;;19.09;62.14;102093.75;4881975;29;20024;-86
2021/10/12 11:13:39;;;;;;;2.20;1.10;;;;;;;19.13;62.10;102094.66;4881437;29;20029;-86
2021/10/12 11:16:09;;;;;;;2.15;0.88;;;;;;;19.08;62.27;102099.84;4881323;29;20077;-86
2021/10/12 11:18:35;;;;;;;1.58;0.90;;;;;;;19.00;62.46;102098.94;4881174;29;20525;-85
2021/10/12 11:21:05;;;;;;;3.00;1.00;;;;;;;18.97;62.25;102109.38;4881694;29;20025;-85
2021/10/12 11:23:33;;;;;;;1.35;0.70;;;;;;;18.97;62.78;102113.72;4881918;29;20028;-86
2021/10/12 11:26:01;;;;;;;1.98;0.90;;;;;;;18.95;62.52;102108.50;4882805;29;20120;-84
2021/10/12 11:28:29;;;;;;;1.40;0.77;;;;;;;18.96;62.51;102114.56;4885593;29;20025;-85
2021/10/12 11:30:59;;;;;;;2.75;1.00;;;;;;;18.96;62.43;102107.63;4885215;29;20043;-85
2021/10/12 11:33:43;;;;;;;2.03;0.80;;;;;;;18.95;62.45;102113.72;4885480;29;20055;-84
2021/10/12 11:36:10;;;;;;;1.90;0.90;;;;;;;18.97;62.46;102116.34;4885454;29;20036;-85
2021/10/12 11:38:41;;;;;;;3.03;0.95;;;;;;;18.91;62.52;102096.31;4884984;29;20040;-84
2021/10/12 11:41:16;;;;;;;2.92;0.90;;;;;;;18.93;62.63;102111.97;4885020;29;20474;-85
2021/10/12 11:43:43;;;;;;;2.53;0.93;;;;;;;18.99;62.43;102114.56;4884616;29;20494;-85
2021/10/12 11:46:09;;;;;;;1.80;0.90;;;;;;;19.04;62.12;102107.66;4869290;29;20039;-86
2021/10/12 11:48:36;;;;;;;1.50;0.80;;;;;;;19.08;62.22;102107.69;4884198;29;20439;-85
2021/10/12 11:51:21;;;;;;;1.95;0.80;;;;;;;19.05;62.07;102104.19;4868720;29;20039;-87
2021/10/12 11:53:47;;;;;;;1.52;0.85;;;;;;;18.97;62.38;102117.19;4884326;29;20033;-85
2021/10/12 11:56:14;;;;;;;2.13;0.80;;;;;;;18.94;62.47;102111.94;4884756;29;20060;-85
2021/10/12 11:58:41;;;;;;;2.17;0.90;;;;;;;18.95;62.61;102121.53;4869238;29;20136;-87
2021/10/12 12:01:09;;;;;;;1.95;0.90;;;;;;;18.94;62.59;102111.09;4885068;29;20557;-85
2021/10/12 12:03:35;;;;;;;1.70;0.73;;;;;;;18.93;62.69;102106.75;4869469;29;20029;-85
2021/10/12 12:06:01;;;;;;;1.50;0.73;;;;;;;18.90;62.34;102105.88;4869502;29;20082;-85
2021/10/12 12:08:30;;;;;;;2.70;1.00;;;;;;;18.90;62.59;102102.38;4871529;29;20048;-86
2021/10/12 12:10:56;;;;;;;1.88;0.90;;;;;;;18.91;62.53;102114.56;4887183;29;20024;-85
2021/10/12 12:13:26;;;;;;;1.80;0.80;;;;;;;18.95;62.45;102110.25;4854324;29;20457;-84
2021/10/12 12:15:52;;;;;;;2.20;1.00;;;;;;;18.97;62.34;102111.13;4887239;29;20606;-86
2021/10/12 12:18:19;;;;;;;2.70;0.90;;;;;;;18.98;62.22;102112.84;4872650;29;20064;-85
2021/10/12 12:20:50;;;;;;;1.90;0.70;;;;;;;18.98;62.25;102115.47;4889462;29;20044;-86
2021/10/12 12:23:55;;;;;;;1.20;0.80;;;;;;;19.00;62.39;102116.34;4885991;29;20059;-85
2021/10/12 12:26:22;;;;;;;1.70;0.70;;;;;;;18.98;62.34;102118.06;4901148;29;20095;-85
2021/10/12 12:28:48;;;;;;;1.70;0.80;;;;;;;18.98;62.18;102111.09;4884271;29;20024;-87
2021/10/12 12:31:23;;;;;;;1.65;0.70;;;;;;;18.99;62.46;102118.09;4868598;29;20039;-86
2021/10/12 12:33:49;;;;;;;1.75;0.90;;;;;;;18.99;62.47;102115.47;4885047;29;20035;-85
2021/10/12 12:36:16;;;;;;;1.95;0.70;;;;;;;18.98;62.30;102111.09;4868660;29;20035;-85
2021/10/12 12:38:42;;;;;;;2.13;0.80;;;;;;;18.99;62.47;102114.56;4867730;29;20035;-84
2021/10/12 12:41:27;;;;;;;1.90;0.80;;;;;;;19.02;62.49;102117.22;4868304;29;20036;-85
2021/10/12 12:43:52;;;;;;;1.80;0.90;;;;;;;19.04;62.51;102123.31;4900693;29;20100;-85
2021/10/12 12:46:23;;;;;;;1.58;0.70;;;;;;;19.05;62.26;102112.91;4884196;29;20067;-85
2021/10/12 12:49:13;;;;;;;1.48;0.90;;;;;;;19.10;62.26;102113.78;4883408;29;20120;-86
2021/10/12 12:51:47;;;;;;;2.05;0.63;;;;;;;19.11;62.28;102120.72;4883919;29;20143;-85
2021/10/12 12:57:34;;;;;;;1.48;0.70;;;;;;;19.14;61.93;102116.41;4900967;29;20063;-86
2021/10/12 13:00:13;;;;;;;1.23;0.55;;;;;;;19.14;61.89;102119.00;4883225;29;20073;-86
2021/10/12 13:02:39;;;;;;;1.48;0.85;;;;;;;19.11;62.04;102122.47;4884803;29;20431;-85
2021/10/12 13:05:05;;;;;;;2.72;0.73;;;;;;;19.08;62.35;102128.56;4868214;29;20028;-87
2021/10/12 13:07:30;;;;;;;1.20;0.60;;;;;;;19.07;62.07;102126.78;4867854;29;20029;-86
2021/10/12 13:09:57;;;;;;;1.83;0.70;;;;;;;19.05;62.09;102125.06;4899887;29;20092;-85
2021/10/12 13:12:24;;;;;;;1.15;0.60;;;;;;;19.03;62.04;102122.47;4899786;29;20044;-85
2021/10/12 13:14:50;;;;;;;1.50;0.80;;;;;;;19.02;62.30;102120.69;4882803;29;20016;-86
2021/10/12 13:17:19;;;;;;;1.05;0.68;;;;;;;19.02;62.25;102123.31;4899980;29;20063;-86
2021/10/12 13:19:54;;;;;;;1.10;0.70;;;;;;;19.02;62.41;102125.91;4883525;29;20129;-85
2021/10/12 13:22:21;;;;;;;1.42;0.60;;;;;;;19.03;62.01;102125.06;4882821;29;20389;-85
2021/10/12 13:24:48;;;;;;;1.67;0.75;;;;;;;19.04;62.16;102124.19;4882680;29;20153;-86
2021/10/12 13:27:14;;;;;;;1.85;0.60;;;;;;;19.06;62.09;102127.69;4882822;29;20068;-82
2021/10/12 13:29:39;;;;;;;1.83;0.68;;;;;;;19.06;62.19;102134.63;4883243;29;20036;-82
2021/10/12 13:32:05;;;;;;;1.92;0.90;;;;;;;19.09;62.13;102132.03;4867501;29;20557;-83
2021/10/12 13:34:31;;;;;;;1.17;0.60;;;;;;;19.11;62.05;102130.31;4882897;29;20025;-82
2021/10/12 13:36:56;;;;;;;1.13;0.50;;;;;;;19.13;62.16;102144.22;4883390;29;20029;-82
2021/10/12 13:39:22;;;;;;;1.85;0.80;;;;;;;19.11;61.88;102140.75;4867545;29;20443;-83
2021/10/12 13:41:49;;;;;;;1.60;0.63;;;;;;;19.11;62.03;102146.81;4882754;29;20039;-82
2021/10/12 13:44:15;;;;;;;2.08;0.70;;;;;;;19.09;62.25;102140.72;4882463;29;20482;-84
2021/10/12 13:46:41;;;;;;;1.02;0.52;;;;;;;19.11;61.90;102152.03;4866943;29;20060;-82
2021/10/12 13:49:06;;;;;;;0.77;0.45;;;;;;;19.15;62.06;102167.72;4882104;29;20128;-82
2021/10/12 13:51:32;;;;;;;1.25;0.57;;;;;;;19.14;62.07;102159.03;4866608;29;20029;-81
2021/10/12 13:53:58;;;;;;;1.67;0.63;;;;;;;19.14;62.03;102160.75;4882211;29;20029;-83
2021/10/12 13:56:25;;;;;;;0.65;0.40;;;;;;;19.12;61.62;102163.38;4897768;29;20028;-84
2021/10/12 13:58:50;;;;;;;1.63;0.80;;;;;;;19.14;62.01;102169.47;4898755;29;20028;-82
2021/10/12 14:01:15;;;;;;;1.63;0.70;;;;;;;19.12;62.11;102171.19;4882106;29;20036;-82
2021/10/12 14:03:41;;;;;;;1.45;0.65;;;;;;;19.13;62.03;102159.88;4898790;29;20047;-84
2021/10/12 14:06:06;;;;;;;1.05;0.50;;;;;;;19.13;61.85;102167.72;4881851;29;20040;-82
2021/10/12 14:08:33;;;;;;;1.20;0.50;;;;;;;19.14;61.77;102165.97;4866433;29;20025;-82
2021/10/12 14:10:58;;;;;;;1.35;0.60;;;;;;;19.14;61.85;102172.09;4866434;29;20040;-83
2021/10/12 14:13:28;;;;;;;1.20;0.57;;;;;;;19.15;61.90;102172.94;4881813;29;20378;-81
2021/10/12 14:15:53;;;;;;;1.88;0.57;;;;;;;19.17;61.52;102173.84;4881785;29;20048;-84
2021/10/12 14:18:20;;;;;;;1.23;0.60;;;;;;;19.14;61.71;102166.88;4866304;29;20095;-82
2021/10/12 14:20:51;;;;;;;1.23;0.60;;;;;;;19.14;61.81;102171.19;4866354;29;20397;-82
2021/10/12 14:23:17;;;;;;;1.58;0.70;;;;;;;19.13;61.62;102180.75;4881823;29;20057;-83
2021/10/12 14:25:47;;;;;;;0.80;0.43;;;;;;;19.14;61.79;102185.13;4881698;29;20060;-83
2021/10/12 14:28:14;;;;;;;1.30;0.60;;;;;;;19.14;61.68;102182.53;4881544;29;20024;-82
2021/10/12 14:30:42;;;;;;;2.13;0.60;;;;;;;19.13;61.82;102183.38;4866365;29;20123;-84
2021/10/12 14:33:09;;;;;;;2.17;0.57;;;;;;;19.14;61.69;102181.63;4866112;29;20032;-82
2021/10/12 14:35:35;;;;;;;1.40;0.60;;;;;;;19.14;61.53;102179.00;4881515;29;20028;-83
2021/10/12 14:38:00;;;;;;;1.00;0.50;;;;;;;19.13;61.46;102187.72;4881517;29;20036;-82
2021/10/12 14:40:25;;;;;;;1.95;0.65;;;;;;;19.12;61.85;102184.25;4866033;29;20032;-85
2021/10/12 14:42:51;;;;;;;1.13;0.70;;;;;;;19.13;61.71;102191.19;4866070;29;20489;-84
2021/10/12 14:45:17;;;;;;;1.70;0.55;;;;;;;19.13;61.64;102182.50;4866174;29;20516;-83
2021/10/12 14:47:42;;;;;;;2.13;0.70;;;;;;;19.13;61.61;102183.38;4881780;29;20039;-84
2021/10/12 14:50:09;;;;;;;1.02;0.52;;;;;;;19.13;61.67;102193.81;4866138;29;20025;-84
2021/10/12 14:52:36;;;;;;;1.85;0.60;;;;;;;19.11;61.32;102193.78;4866227;29;20028;-83
2021/10/12 14:55:03;;;;;;;1.80;0.60;;;;;;;19.12;61.38;102194.69;4898553;29;20032;-84
2021/10/12 14:57:29;;;;;;;1.35;0.65;;;;;;;19.12;61.36;102194.69;4881524;29;20035;-84
2021/10/12 14:59:54;;;;;;;4.68;0.70;;;;;;;19.11;61.44;102199.00;4881480;29;20024;-84
2021/10/12 15:02:20;;;;;;;2.00;0.50;;;;;;;19.09;61.68;102195.50;4884577;29;20111;-85
2021/10/12 15:04:45;;;;;;;1.98;0.70;;;;;;;19.09;61.50;102197.25;4869602;29;20499;-85
2021/10/12 15:07:11;;;;;;;0.68;0.50;;;;;;;19.06;61.65;102197.25;4902121;29;20035;-82
2021/10/12 15:09:36;;;;;;;3.83;0.90;;;;;;;19.06;61.56;102186.81;4869713;29;20065;-83
2021/10/12 15:12:04;;;;;;;1.08;0.50;;;;;;;19.04;61.66;102197.25;4885500;29;20035;-82
2021/10/12 15:14:30;;;;;;;2.40;0.60;;;;;;;19.02;61.79;102198.97;4887849;29;20048;-85
2021/10/12 15:16:56;;;;;;;1.65;0.60;;;;;;;19.02;61.67;102201.56;4904251;29;20047;-82
2021/10/12 15:19:26;;;;;;;1.10;0.63;;;;;;;19.02;61.58;102196.34;4887241;29;20052;-86
2021/10/12 15:21:53;;;;;;;1.48;0.70;;;;;;;19.03;61.34;102202.44;4889485;29;20441;-87
2021/10/12 15:24:18;;;;;;;2.95;0.63;;;;;;;19.04;61.51;102194.63;4870107;29;20032;-87
2021/10/12 15:26:43;;;;;;;2.15;0.50;;;;;;;19.03;61.60;102192.91;4886759;29;20035;-87
2021/10/12 15:29:09;;;;;;;1.52;0.68;;;;;;;19.04;61.54;102193.75;4870089;29;20434;-86
2021/10/12 15:31:37;;;;;;;2.65;0.80;;;;;;;19.04;61.45;102191.16;4870696;29;20031;-87
2021/10/12 15:34:03;;;;;;;1.80;0.70;;;;;;;19.04;61.55;102199.84;4870888;29;20032;-87
2021/10/12 15:36:28;;;;;;;1.60;0.50;;;;;;;19.03;61.60;102195.50;4885370;29;20099;-85
2021/10/12 15:39:26;;;;;;;2.03;0.70;;;;;;;19.05;61.53;102199.00;4886022;29;20036;-86
2021/10/12 15:41:57;;;;;;;1.23;0.60;;;;;;;19.04;61.51;102193.75;4885568;29;20039;-87
2021/10/12 15:44:27;;;;;;;3.15;0.70;;;;;;;19.03;61.40;102198.13;4885694;29;20032;-86
2021/10/12 15:46:53;;;;;;;2.10;0.70;;;;;;;19.00;61.81;102198.06;4886776;29;20044;-87
2021/10/12 15:49:21;;;;;;;2.13;0.90;;;;;;;19.00;61.51;102207.66;4870578;29;20024;-87
2021/10/12 15:51:51;;;;;;;2.83;0.80;;;;;;;18.98;61.52;102205.03;4871599;29;20028;-86
2021/10/12 15:54:16;;;;;;;1.42;0.60;;;;;;;18.98;61.62;102205.03;4886527;29;20025;-86
2021/10/12 15:56:42;;;;;;;3.25;0.63;;;;;;;18.96;61.82;102213.72;4889888;29;20064;-86
2021/10/12 15:59:07;;;;;;;1.60;0.73;;;;;;;18.97;61.91;102210.25;4857831;29;20103;-85
2021/10/12 16:01:34;;;;;;;1.15;0.63;;;;;;;18.97;61.99;102224.16;4889476;29;20115;-84
2021/10/12 16:03:59;;;;;;;1.40;0.77;;;;;;;18.99;61.94;102227.66;4889409;29;20035;-85
2021/10/12 16:06:27;;;;;;;2.22;0.73;;;;;;;19.00;61.89;102229.38;4872872;29;20036;-85
2021/10/12 16:08:52;;;;;;;2.25;0.80;;;;;;;19.01;61.85;102225.94;4871900;29;20055;-87
2021/10/12 16:11:24;;;;;;;2.30;0.70;;;;;;;19.02;61.99;102225.06;4871506;29;20028;-82
2021/10/12 16:13:49;;;;;;;1.35;0.60;;;;;;;19.03;61.87;102229.44;4874101;29;20032;-84
2021/10/12 16:21:51;;;;;;;1.83;0.80;;;;;;;19.06;61.99;102237.25;4878262;29;20048;-84
2021/10/12 16:24:18;;;;;;;1.45;0.50;;;;;;;19.03;62.17;102234.63;4885578;29;20084;-85
2021/10/12 16:26:45;;;;;;;1.73;0.70;;;;;;;19.02;62.30;102238.09;4869773;29;20040;-84
2021/10/12 16:29:13;;;;;;;1.42;0.50;;;;;;;19.02;62.18;102239.84;4870624;29;20469;-85
2021/10/12 16:31:44;;;;;;;1.20;0.68;;;;;;;19.00;62.10;102242.44;4884952;29;20039;-85
2021/10/12 16:36:43;;;;;;;1.45;0.68;;;;;;;18.99;62.37;102245.00;4901959;29;20039;-83
2021/10/12 16:39:10;;;;;;;1.13;0.70;;;;;;;18.98;62.17;102248.50;4900793;29;20028;-84
2021/10/12 16:41:36;;;;;;;2.15;0.80;;;;;;;18.97;61.99;102250.25;4884341;29;20115;-84
2021/10/12 16:44:02;;;;;;;0.98;0.52;;;;;;;18.97;62.17;102258.06;4884047;29;20063;-84
2021/10/12 16:46:27;;;;;;;1.30;0.75;;;;;;;18.96;61.85;102261.53;4884152;29;20549;-84
2021/10/12 16:48:53;;;;;;;1.52;0.68;;;;;;;18.95;62.09;102265.00;4883793;29;20032;-84
2021/10/12 16:51:18;;;;;;;7.65;1.40;;;;;;;18.97;62.38;102270.25;4853000;29;20036;-85
2021/10/12 16:53:46;;;;;;;12.50;1.98;;;;;;;18.99;63.12;102278.94;4868420;29;20036;-84
2021/10/12 16:56:12;;;;;;;15.18;2.20;;;;;;;18.99;63.43;102277.22;4869097;29;20033;-83